Biniguni Airport


Codes: XBN/XBN
Name: Biniguni Airport
City: Biniguni
Country: Papua New Guinea
Elevation: 215 ft.

Photos at Biniguni Airport


   Photos courtesy of SpottingLog. You can add your own sightings and photos by signing up for a free trial today.



No photos found.

Weather at Biniguni Airport


Time (UTC)DescriptionTempratureWindCloud coverageVisibilityPressureHumidity
17-Jun-2024 06:00Clear Sky29°C4 mph, NE8%10000m1012hPa58%
17-Jun-2024 09:00Clear Sky27°C4 mph, S5%10000m1013hPa67%
17-Jun-2024 12:00Clear Sky24°C7 mph, SW3%10000m1014hPa75%
17-Jun-2024 15:00Clear Sky22°C4 mph, SW0%10000m1015hPa81%
17-Jun-2024 18:00Clear Sky21°C4 mph, S0%10000m1014hPa75%
17-Jun-2024 21:00Clear Sky21°C4 mph, SW0%10000m1015hPa66%
18-Jun-2024 00:00Clear Sky28°C4 mph, NE0%10000m1015hPa43%
18-Jun-2024 03:00Clear Sky30°C7 mph, NE0%10000m1012hPa43%
18-Jun-2024 06:00Clear Sky29°C7 mph, NE0%10000m1011hPa54%
18-Jun-2024 09:00Clear Sky23°C4 mph, S0%10000m1013hPa83%
18-Jun-2024 12:00Clear Sky22°C4 mph, SW0%10000m1015hPa83%
18-Jun-2024 15:00Clear Sky21°C4 mph, SW0%10000m1014hPa82%
18-Jun-2024 18:00Clear Sky21°C4 mph, SW9%10000m1013hPa76%
18-Jun-2024 21:00Broken Clouds22°C4 mph, SW53%10000m1015hPa68%
19-Jun-2024 00:00Broken Clouds28°C4 mph, NE73%10000m1014hPa47%
19-Jun-2024 03:00Broken Clouds30°C7 mph, NE61%10000m1011hPa45%
19-Jun-2024 06:00Scattered Clouds29°C7 mph, NE45%10000m1010hPa58%
19-Jun-2024 09:00Clear Sky24°C4 mph, SE0%10000m1012hPa88%
19-Jun-2024 12:00Few Clouds24°C4 mph, S24%10000m1014hPa87%
19-Jun-2024 15:00Scattered Clouds23°C4 mph, SW29%10000m1013hPa87%
19-Jun-2024 18:00Broken Clouds23°C4 mph, SW62%10000m1012hPa84%
19-Jun-2024 21:00Scattered Clouds23°C4 mph, SW34%10000m1014hPa79%
20-Jun-2024 00:00Scattered Clouds29°C4 mph, NE45%10000m1013hPa59%
20-Jun-2024 03:00Overcast Clouds30°C4 mph, NE88%10000m1011hPa62%
20-Jun-2024 06:00Light Rain28°C4 mph, E86%10000m1011hPa77%
20-Jun-2024 09:00Overcast Clouds25°C4 mph, SE85%10000m1013hPa86%
20-Jun-2024 12:00Overcast Clouds24°C4 mph, S89%10000m1014hPa85%
20-Jun-2024 15:00Overcast Clouds23°C4 mph, S95%10000m1013hPa85%
20-Jun-2024 18:00Overcast Clouds23°C4 mph, SW95%10000m1012hPa84%
20-Jun-2024 21:00Overcast Clouds23°C2 mph, SW95%10000m1014hPa80%
21-Jun-2024 00:00Overcast Clouds28°C2 mph, NE97%10000m1013hPa61%
21-Jun-2024 03:00Overcast Clouds30°C4 mph, NE100%10000m1011hPa59%
21-Jun-2024 06:00Overcast Clouds28°C4 mph, E100%10000m1011hPa70%
21-Jun-2024 09:00Overcast Clouds26°C2 mph, SE100%10000m1013hPa82%
21-Jun-2024 12:00Light Rain25°C2 mph, SE100%10000m1014hPa84%
21-Jun-2024 15:00Light Rain25°C2 mph, SW100%10000m1013hPa88%
21-Jun-2024 18:00Light Rain25°C2 mph, SW100%10000m1013hPa89%
21-Jun-2024 21:00Overcast Clouds25°C2 mph, SW100%10000m1014hPa88%
22-Jun-2024 00:00Overcast Clouds26°C2 mph, NE100%10000m1015hPa82%
22-Jun-2024 03:00Overcast Clouds30°C7 mph, NE90%10000m1011hPa64%